sensor_id;sensor_type;location;lat;lon;timestamp;temperature;humidity
26212;DHT22;13951;49.516;6.094;2023-05-07T00:02:32;14.00;99.90
26212;DHT22;13951;49.516;6.094;2023-05-07T00:05:05;14.00;99.90
26212;DHT22;13951;49.516;6.094;2023-05-07T00:07:39;14.00;99.90
26212;DHT22;13951;49.516;6.094;2023-05-07T00:10:12;13.90;99.90
26212;DHT22;13951;49.516;6.094;2023-05-07T00:12:45;14.00;99.90
26212;DHT22;13951;49.516;6.094;2023-05-07T00:15:18;13.90;99.90
26212;DHT22;13951;49.516;6.094;2023-05-07T00:17:51;13.80;99.90
26212;DHT22;13951;49.516;6.094;2023-05-07T00:20:25;13.90;99.90
26212;DHT22;13951;49.516;6.094;2023-05-07T00:22:58;13.80;99.90
26212;DHT22;13951;49.516;6.094;2023-05-07T00:25:31;13.80;99.90
26212;DHT22;13951;49.516;6.094;2023-05-07T00:28:04;13.80;99.90
26212;DHT22;13951;49.516;6.094;2023-05-07T00:30:37;13.80;99.90
26212;DHT22;13951;49.516;6.094;2023-05-07T00:33:10;13.70;99.90
26212;DHT22;13951;49.516;6.094;2023-05-07T00:35:43;13.70;99.90
26212;DHT22;13951;49.516;6.094;2023-05-07T00:38:16;13.70;99.90
26212;DHT22;13951;49.516;6.094;2023-05-07T00:40:49;13.60;99.90
26212;DHT22;13951;49.516;6.094;2023-05-07T00:43:23;13.50;99.90
26212;DHT22;13951;49.516;6.094;2023-05-07T00:45:56;13.50;99.90
26212;DHT22;13951;49.516;6.094;2023-05-07T00:48:29;13.40;99.90
26212;DHT22;13951;49.516;6.094;2023-05-07T00:51:03;13.30;99.90
26212;DHT22;13951;49.516;6.094;2023-05-07T00:53:35;13.30;99.90
26212;DHT22;13951;49.516;6.094;2023-05-07T00:56:09;13.20;99.90
26212;DHT22;13951;49.516;6.094;2023-05-07T00:58:42;13.20;99.90
26212;DHT22;13951;49.516;6.094;2023-05-07T01:01:16;13.10;99.90
26212;DHT22;13951;49.516;6.094;2023-05-07T01:03:49;13.10;99.90
26212;DHT22;13951;49.516;6.094;2023-05-07T01:06:23;13.10;99.90
26212;DHT22;13951;49.516;6.094;2023-05-07T01:08:59;13.10;99.90
26212;DHT22;13951;49.516;6.094;2023-05-07T01:11:33;13.10;99.90
26212;DHT22;13951;49.516;6.094;2023-05-07T01:14:06;13.10;99.90
26212;DHT22;13951;49.516;6.094;2023-05-07T01:16:39;13.00;99.90
26212;DHT22;13951;49.516;6.094;2023-05-07T01:19:17;13.10;99.90
26212;DHT22;13951;49.516;6.094;2023-05-07T01:21:51;13.00;99.90
26212;DHT22;13951;49.516;6.094;2023-05-07T01:24:25;13.10;99.90
26212;DHT22;13951;49.516;6.094;2023-05-07T01:26:59;13.10;99.90
26212;DHT22;13951;49.516;6.094;2023-05-07T01:29:32;13.10;99.90
26212;DHT22;13951;49.516;6.094;2023-05-07T01:32:05;13.10;99.90
26212;DHT22;13951;49.516;6.094;2023-05-07T01:34:39;13.10;99.90
26212;DHT22;13951;49.516;6.094;2023-05-07T01:37:13;13.10;99.90
26212;DHT22;13951;49.516;6.094;2023-05-07T01:39:48;13.10;99.90
26212;DHT22;13951;49.516;6.094;2023-05-07T01:42:21;13.00;99.90
26212;DHT22;13951;49.516;6.094;2023-05-07T01:44:54;12.90;99.90
26212;DHT22;13951;49.516;6.094;2023-05-07T01:47:29;12.90;99.90
26212;DHT22;13951;49.516;6.094;2023-05-07T01:50:06;12.80;99.90
26212;DHT22;13951;49.516;6.094;2023-05-07T01:52:41;12.80;99.90
26212;DHT22;13951;49.516;6.094;2023-05-07T01:55:14;12.70;99.90
26212;DHT22;13951;49.516;6.094;2023-05-07T01:57:47;12.70;99.90
26212;DHT22;13951;49.516;6.094;2023-05-07T02:00:21;12.70;99.90
26212;DHT22;13951;49.516;6.094;2023-05-07T02:02:54;12.70;99.90
26212;DHT22;13951;49.516;6.094;2023-05-07T02:05:45;12.70;99.90
26212;DHT22;13951;49.516;6.094;2023-05-07T02:08:25;12.70;99.90
26212;DHT22;13951;49.516;6.094;2023-05-07T02:10:58;12.70;99.90
26212;DHT22;13951;49.516;6.094;2023-05-07T02:13:32;12.60;99.90
26212;DHT22;13951;49.516;6.094;2023-05-07T02:16:06;12.60;99.90
26212;DHT22;13951;49.516;6.094;2023-05-07T02:18:39;12.50;99.90
26212;DHT22;13951;49.516;6.094;2023-05-07T02:21:12;12.50;99.90
26212;DHT22;13951;49.516;6.094;2023-05-07T02:23:45;12.50;99.90
26212;DHT22;13951;49.516;6.094;2023-05-07T02:26:18;12.50;99.90
26212;DHT22;13951;49.516;6.094;2023-05-07T02:28:51;12.50;99.90
26212;DHT22;13951;49.516;6.094;2023-05-07T02:31:25;12.40;99.90
26212;DHT22;13951;49.516;6.094;2023-05-07T02:33:58;12.40;99.90
26212;DHT22;13951;49.516;6.094;2023-05-07T02:36:31;12.40;99.90
26212;DHT22;13951;49.516;6.094;2023-05-07T02:39:12;12.40;99.90
26212;DHT22;13951;49.516;6.094;2023-05-07T02:41:46;12.40;99.90
26212;DHT22;13951;49.516;6.094;2023-05-07T02:44:20;12.40;99.90
26212;DHT22;13951;49.516;6.094;2023-05-07T02:46:55;12.50;99.90
26212;DHT22;13951;49.516;6.094;2023-05-07T02:49:27;12.50;99.90
26212;DHT22;13951;49.516;6.094;2023-05-07T02:52:00;12.50;99.90
26212;DHT22;13951;49.516;6.094;2023-05-07T02:54:34;12.50;99.90
26212;DHT22;13951;49.516;6.094;2023-05-07T02:57:06;12.60;99.90
26212;DHT22;13951;49.516;6.094;2023-05-07T02:59:39;12.50;99.90
26212;DHT22;13951;49.516;6.094;2023-05-07T03:02:12;12.50;99.90
26212;DHT22;13951;49.516;6.094;2023-05-07T03:05:00;12.30;99.90
26212;DHT22;13951;49.516;6.094;2023-05-07T03:07:34;12.20;99.90
26212;DHT22;13951;49.516;6.094;2023-05-07T03:10:08;12.10;99.90
26212;DHT22;13951;49.516;6.094;2023-05-07T03:12:41;12.10;99.90
26212;DHT22;13951;49.516;6.094;2023-05-07T03:15:17;12.00;99.90
26212;DHT22;13951;49.516;6.094;2023-05-07T03:17:50;11.90;99.90
26212;DHT22;13951;49.516;6.094;2023-05-07T03:20:23;11.90;99.90
26212;DHT22;13951;49.516;6.094;2023-05-07T03:22:56;11.80;99.90
26212;DHT22;13951;49.516;6.094;2023-05-07T03:25:29;11.70;99.90
26212;DHT22;13951;49.516;6.094;2023-05-07T03:28:04;11.70;99.90
26212;DHT22;13951;49.516;6.094;2023-05-07T03:30:46;11.70;99.90
26212;DHT22;13951;49.516;6.094;2023-05-07T03:33:19;11.70;99.90
26212;DHT22;13951;49.516;6.094;2023-05-07T03:35:53;11.70;99.90
26212;DHT22;13951;49.516;6.094;2023-05-07T03:38:29;11.70;99.90
26212;DHT22;13951;49.516;6.094;2023-05-07T03:41:03;11.60;99.90
26212;DHT22;13951;49.516;6.094;2023-05-07T03:43:36;11.60;99.90
26212;DHT22;13951;49.516;6.094;2023-05-07T03:46:13;11.60;99.90
26212;DHT22;13951;49.516;6.094;2023-05-07T03:48:46;11.70;99.90
26212;DHT22;13951;49.516;6.094;2023-05-07T03:51:20;11.50;99.90
26212;DHT22;13951;49.516;6.094;2023-05-07T03:53:53;11.70;99.90
26212;DHT22;13951;49.516;6.094;2023-05-07T03:56:27;11.70;99.90
26212;DHT22;13951;49.516;6.094;2023-05-07T03:59:02;11.70;99.90
26212;DHT22;13951;49.516;6.094;2023-05-07T04:01:35;11.60;99.90
26212;DHT22;13951;49.516;6.094;2023-05-07T04:04:09;11.70;99.90
26212;DHT22;13951;49.516;6.094;2023-05-07T04:06:42;11.60;99.90
26212;DHT22;13951;49.516;6.094;2023-05-07T04:09:15;11.60;99.90
26212;DHT22;13951;49.516;6.094;2023-05-07T04:11:50;11.30;99.90
26212;DHT22;13951;49.516;6.094;2023-05-07T04:14:22;11.40;99.90
26212;DHT22;13951;49.516;6.094;2023-05-07T04:16:55;11.40;99.90
26212;DHT22;13951;49.516;6.094;2023-05-07T04:19:28;11.40;99.90
26212;DHT22;13951;49.516;6.094;2023-05-07T04:22:01;11.40;99.90
26212;DHT22;13951;49.516;6.094;2023-05-07T04:24:34;11.40;99.90
26212;DHT22;13951;49.516;6.094;2023-05-07T04:27:08;11.40;99.90
26212;DHT22;13951;49.516;6.094;2023-05-07T04:29:41;11.40;99.90
26212;DHT22;13951;49.516;6.094;2023-05-07T04:32:17;11.40;99.90
26212;DHT22;13951;49.516;6.094;2023-05-07T04:34:51;11.40;99.90
26212;DHT22;13951;49.516;6.094;2023-05-07T04:37:25;11.50;99.90
26212;DHT22;13951;49.516;6.094;2023-05-07T04:39:58;11.50;99.90
26212;DHT22;13951;49.516;6.094;2023-05-07T04:42:31;11.50;99.90
26212;DHT22;13951;49.516;6.094;2023-05-07T04:45:07;11.50;99.90
26212;DHT22;13951;49.516;6.094;2023-05-07T04:47:42;11.60;99.90
26212;DHT22;13951;49.516;6.094;2023-05-07T04:50:15;11.60;99.90
26212;DHT22;13951;49.516;6.094;2023-05-07T04:52:50;11.60;99.90
26212;DHT22;13951;49.516;6.094;2023-05-07T04:55:23;11.60;99.90
26212;DHT22;13951;49.516;6.094;2023-05-07T04:57:57;11.60;99.90
26212;DHT22;13951;49.516;6.094;2023-05-07T05:00:30;11.60;99.90
26212;DHT22;13951;49.516;6.094;2023-05-07T05:03:04;11.60;99.90
26212;DHT22;13951;49.516;6.094;2023-05-07T05:05:38;11.70;99.90
26212;DHT22;13951;49.516;6.094;2023-05-07T05:08:11;11.70;99.90
26212;DHT22;13951;49.516;6.094;2023-05-07T05:10:47;11.80;99.90
26212;DHT22;13951;49.516;6.094;2023-05-07T05:13:23;11.80;99.90
26212;DHT22;13951;49.516;6.094;2023-05-07T05:15:56;11.90;99.90
26212;DHT22;13951;49.516;6.094;2023-05-07T05:18:30;11.90;99.90
26212;DHT22;13951;49.516;6.094;2023-05-07T05:21:03;11.90;99.90
26212;DHT22;13951;49.516;6.094;2023-05-07T05:23:37;12.00;99.90
26212;DHT22;13951;49.516;6.094;2023-05-07T05:26:11;12.00;99.90
26212;DHT22;13951;49.516;6.094;2023-05-07T05:28:44;12.00;99.90
26212;DHT22;13951;49.516;6.094;2023-05-07T05:31:17;12.00;99.90
26212;DHT22;13951;49.516;6.094;2023-05-07T05:33:51;12.10;99.90
26212;DHT22;13951;49.516;6.094;2023-05-07T05:36:24;12.20;99.90
26212;DHT22;13951;49.516;6.094;2023-05-07T05:39:00;12.20;99.90
26212;DHT22;13951;49.516;6.094;2023-05-07T05:41:33;12.20;99.90
26212;DHT22;13951;49.516;6.094;2023-05-07T05:44:07;12.30;99.90
26212;DHT22;13951;49.516;6.094;2023-05-07T05:46:41;12.40;99.90
26212;DHT22;13951;49.516;6.094;2023-05-07T05:49:14;12.50;99.90
26212;DHT22;13951;49.516;6.094;2023-05-07T05:51:47;12.50;99.90
26212;DHT22;13951;49.516;6.094;2023-05-07T05:54:21;12.60;99.90
26212;DHT22;13951;49.516;6.094;2023-05-07T05:56:54;12.70;99.90
26212;DHT22;13951;49.516;6.094;2023-05-07T05:59:28;12.80;99.90
26212;DHT22;13951;49.516;6.094;2023-05-07T06:02:02;12.90;99.90
26212;DHT22;13951;49.516;6.094;2023-05-07T06:04:35;13.00;99.90
26212;DHT22;13951;49.516;6.094;2023-05-07T06:07:08;13.00;99.90
26212;DHT22;13951;49.516;6.094;2023-05-07T06:09:42;13.10;99.90
26212;DHT22;13951;49.516;6.094;2023-05-07T06:12:15;13.20;99.90
26212;DHT22;13951;49.516;6.094;2023-05-07T06:14:48;13.30;99.90
26212;DHT22;13951;49.516;6.094;2023-05-07T06:17:24;13.40;99.90
26212;DHT22;13951;49.516;6.094;2023-05-07T06:19:57;13.50;99.90
26212;DHT22;13951;49.516;6.094;2023-05-07T06:22:30;13.60;99.90
26212;DHT22;13951;49.516;6.094;2023-05-07T06:25:09;13.70;99.90
26212;DHT22;13951;49.516;6.094;2023-05-07T06:28:46;13.80;99.90
26212;DHT22;13951;49.516;6.094;2023-05-07T06:32:10;13.90;99.90
26212;DHT22;13951;49.516;6.094;2023-05-07T06:35:48;14.10;99.90
26212;DHT22;13951;49.516;6.094;2023-05-07T06:38:23;14.20;99.90
26212;DHT22;13951;49.516;6.094;2023-05-07T06:40:56;14.40;99.90
26212;DHT22;13951;49.516;6.094;2023-05-07T06:43:31;14.50;99.90
26212;DHT22;13951;49.516;6.094;2023-05-07T06:46:32;14.60;99.90
26212;DHT22;13951;49.516;6.094;2023-05-07T06:49:09;14.70;99.90
26212;DHT22;13951;49.516;6.094;2023-05-07T06:51:41;14.70;99.90
26212;DHT22;13951;49.516;6.094;2023-05-07T06:54:14;14.80;99.90
26212;DHT22;13951;49.516;6.094;2023-05-07T06:56:49;14.90;99.90
26212;DHT22;13951;49.516;6.094;2023-05-07T06:59:24;14.90;99.90
26212;DHT22;13951;49.516;6.094;2023-05-07T07:01:57;15.00;99.90
26212;DHT22;13951;49.516;6.094;2023-05-07T07:04:31;15.10;99.90
26212;DHT22;13951;49.516;6.094;2023-05-07T07:07:08;15.20;99.90
26212;DHT22;13951;49.516;6.094;2023-05-07T07:09:42;15.30;99.90
26212;DHT22;13951;49.516;6.094;2023-05-07T07:12:15;15.40;99.90
26212;DHT22;13951;49.516;6.094;2023-05-07T07:14:48;15.60;99.90
26212;DHT22;13951;49.516;6.094;2023-05-07T07:17:21;15.80;99.90
26212;DHT22;13951;49.516;6.094;2023-05-07T07:19:55;15.90;99.90
26212;DHT22;13951;49.516;6.094;2023-05-07T07:22:28;16.10;99.90
26212;DHT22;13951;49.516;6.094;2023-05-07T07:25:01;16.20;99.90
26212;DHT22;13951;49.516;6.094;2023-05-07T07:27:36;16.30;99.90
26212;DHT22;13951;49.516;6.094;2023-05-07T07:30:10;16.40;99.90
26212;DHT22;13951;49.516;6.094;2023-05-07T07:32:46;16.50;99.90
26212;DHT22;13951;49.516;6.094;2023-05-07T07:35:20;16.60;99.90
26212;DHT22;13951;49.516;6.094;2023-05-07T07:37:53;16.80;99.90
26212;DHT22;13951;49.516;6.094;2023-05-07T07:40:26;17.00;99.90
26212;DHT22;13951;49.516;6.094;2023-05-07T07:42:59;17.20;99.90
26212;DHT22;13951;49.516;6.094;2023-05-07T07:45:34;17.40;99.90
26212;DHT22;13951;49.516;6.094;2023-05-07T07:48:07;17.50;99.90
26212;DHT22;13951;49.516;6.094;2023-05-07T07:50:42;17.40;99.90
26212;DHT22;13951;49.516;6.094;2023-05-07T07:53:20;17.40;99.90
26212;DHT22;13951;49.516;6.094;2023-05-07T07:55:53;17.50;99.90
26212;DHT22;13951;49.516;6.094;2023-05-07T07:58:33;17.50;99.90
26212;DHT22;13951;49.516;6.094;2023-05-07T08:01:08;17.40;99.90
26212;DHT22;13951;49.516;6.094;2023-05-07T08:03:41;17.50;99.90
26212;DHT22;13951;49.516;6.094;2023-05-07T08:06:14;17.50;99.90
26212;DHT22;13951;49.516;6.094;2023-05-07T08:08:48;17.60;99.90
26212;DHT22;13951;49.516;6.094;2023-05-07T08:11:22;17.70;99.90
26212;DHT22;13951;49.516;6.094;2023-05-07T08:13:56;17.80;99.90
26212;DHT22;13951;49.516;6.094;2023-05-07T08:16:29;17.70;99.90
26212;DHT22;13951;49.516;6.094;2023-05-07T08:19:04;17.80;99.90
26212;DHT22;13951;49.516;6.094;2023-05-07T08:21:40;17.90;99.90
26212;DHT22;13951;49.516;6.094;2023-05-07T08:24:15;18.10;99.90
26212;DHT22;13951;49.516;6.094;2023-05-07T08:26:48;18.40;99.90
26212;DHT22;13951;49.516;6.094;2023-05-07T08:29:22;18.60;99.90
26212;DHT22;13951;49.516;6.094;2023-05-07T08:31:55;18.90;99.90
26212;DHT22;13951;49.516;6.094;2023-05-07T08:34:29;19.10;99.90
26212;DHT22;13951;49.516;6.094;2023-05-07T08:37:03;19.30;99.90
26212;DHT22;13951;49.516;6.094;2023-05-07T08:39:37;19.40;99.90
26212;DHT22;13951;49.516;6.094;2023-05-07T08:42:16;19.60;99.90
26212;DHT22;13951;49.516;6.094;2023-05-07T08:44:51;19.70;99.90
26212;DHT22;13951;49.516;6.094;2023-05-07T08:47:36;19.80;99.90
26212;DHT22;13951;49.516;6.094;2023-05-07T08:50:12;19.80;99.90
26212;DHT22;13951;49.516;6.094;2023-05-07T08:52:46;19.70;99.90
26212;DHT22;13951;49.516;6.094;2023-05-07T08:55:20;19.70;99.90
26212;DHT22;13951;49.516;6.094;2023-05-07T08:57:54;19.80;99.90
26212;DHT22;13951;49.516;6.094;2023-05-07T09:00:27;19.80;99.90
26212;DHT22;13951;49.516;6.094;2023-05-07T09:03:01;20.00;99.90
26212;DHT22;13951;49.516;6.094;2023-05-07T09:05:34;20.10;99.90
26212;DHT22;13951;49.516;6.094;2023-05-07T09:08:14;20.20;99.90
26212;DHT22;13951;49.516;6.094;2023-05-07T09:10:49;20.40;99.90
26212;DHT22;13951;49.516;6.094;2023-05-07T09:13:23;20.50;99.90
26212;DHT22;13951;49.516;6.094;2023-05-07T09:15:56;20.40;99.90
26212;DHT22;13951;49.516;6.094;2023-05-07T09:18:31;20.60;99.90
26212;DHT22;13951;49.516;6.094;2023-05-07T09:21:05;20.70;99.90
26212;DHT22;13951;49.516;6.094;2023-05-07T09:23:42;20.80;99.90
26212;DHT22;13951;49.516;6.094;2023-05-07T09:26:17;20.90;99.90
26212;DHT22;13951;49.516;6.094;2023-05-07T09:28:51;20.90;99.90
26212;DHT22;13951;49.516;6.094;2023-05-07T09:31:25;20.80;99.90
26212;DHT22;13951;49.516;6.094;2023-05-07T09:34:00;20.80;99.90
26212;DHT22;13951;49.516;6.094;2023-05-07T09:36:36;20.90;99.90
26212;DHT22;13951;49.516;6.094;2023-05-07T09:39:09;21.00;99.90
26212;DHT22;13951;49.516;6.094;2023-05-07T09:41:46;20.80;99.90
26212;DHT22;13951;49.516;6.094;2023-05-07T09:44:26;20.70;99.90
26212;DHT22;13951;49.516;6.094;2023-05-07T09:47:00;20.90;99.90
26212;DHT22;13951;49.516;6.094;2023-05-07T09:49:42;21.00;99.90
26212;DHT22;13951;49.516;6.094;2023-05-07T09:52:24;21.20;99.90
26212;DHT22;13951;49.516;6.094;2023-05-07T09:55:00;21.40;99.90
26212;DHT22;13951;49.516;6.094;2023-05-07T09:57:37;21.50;99.90
26212;DHT22;13951;49.516;6.094;2023-05-07T10:00:13;21.40;99.90
26212;DHT22;13951;49.516;6.094;2023-05-07T10:02:56;21.30;99.90
26212;DHT22;13951;49.516;6.094;2023-05-07T10:05:39;21.10;99.90
26212;DHT22;13951;49.516;6.094;2023-05-07T10:08:12;21.10;99.90
26212;DHT22;13951;49.516;6.094;2023-05-07T10:10:46;20.90;99.90
26212;DHT22;13951;49.516;6.094;2023-05-07T10:13:23;20.70;99.90
26212;DHT22;13951;49.516;6.094;2023-05-07T10:16:01;20.60;99.90
26212;DHT22;13951;49.516;6.094;2023-05-07T10:18:41;20.50;99.90
26212;DHT22;13951;49.516;6.094;2023-05-07T10:21:23;20.40;99.90
26212;DHT22;13951;49.516;6.094;2023-05-07T10:26:45;20.20;99.90
26212;DHT22;13951;49.516;6.094;2023-05-07T10:34:56;20.20;99.90
26212;DHT22;13951;49.516;6.094;2023-05-07T10:37:32;20.30;99.90
26212;DHT22;13951;49.516;6.094;2023-05-07T10:40:06;20.30;99.90
26212;DHT22;13951;49.516;6.094;2023-05-07T10:42:53;20.40;99.90
26212;DHT22;13951;49.516;6.094;2023-05-07T10:45:28;20.40;99.90
26212;DHT22;13951;49.516;6.094;2023-05-07T10:48:14;20.40;99.90
26212;DHT22;13951;49.516;6.094;2023-05-07T10:51:23;20.40;99.90
26212;DHT22;13951;49.516;6.094;2023-05-07T10:56:55;20.30;99.90
26212;DHT22;13951;49.516;6.094;2023-05-07T10:59:33;20.30;99.90
26212;DHT22;13951;49.516;6.094;2023-05-07T11:02:16;20.30;99.90
26212;DHT22;13951;49.516;6.094;2023-05-07T11:05:22;20.20;99.90
26212;DHT22;13951;49.516;6.094;2023-05-07T11:08:04;20.20;99.90
26212;DHT22;13951;49.516;6.094;2023-05-07T11:10:52;20.20;99.90
26212;DHT22;13951;49.516;6.094;2023-05-07T11:13:44;20.20;99.90
26212;DHT22;13951;49.516;6.094;2023-05-07T11:16:28;20.20;99.90
26212;DHT22;13951;49.516;6.094;2023-05-07T11:19:10;20.20;99.90
26212;DHT22;13951;49.516;6.094;2023-05-07T11:21:48;20.30;99.90
26212;DHT22;13951;49.516;6.094;2023-05-07T11:24:44;20.40;99.90
26212;DHT22;13951;49.516;6.094;2023-05-07T11:27:23;20.70;99.90
26212;DHT22;13951;49.516;6.094;2023-05-07T11:29:57;20.90;99.90
26212;DHT22;13951;49.516;6.094;2023-05-07T11:32:31;21.20;99.90
26212;DHT22;13951;49.516;6.094;2023-05-07T11:35:05;21.40;99.90
26212;DHT22;13951;49.516;6.094;2023-05-07T11:37:39;21.30;99.90
26212;DHT22;13951;49.516;6.094;2023-05-07T11:40:12;21.30;99.90
26212;DHT22;13951;49.516;6.094;2023-05-07T11:42:47;21.30;99.90
26212;DHT22;13951;49.516;6.094;2023-05-07T11:45:24;21.30;99.90
26212;DHT22;13951;49.516;6.094;2023-05-07T11:48:01;21.20;99.90
26212;DHT22;13951;49.516;6.094;2023-05-07T11:50:34;21.10;99.90
26212;DHT22;13951;49.516;6.094;2023-05-07T11:53:08;21.00;99.90
26212;DHT22;13951;49.516;6.094;2023-05-07T11:55:41;21.00;99.90
26212;DHT22;13951;49.516;6.094;2023-05-07T11:58:21;20.80;99.90
26212;DHT22;13951;49.516;6.094;2023-05-07T12:00:54;20.70;99.90
26212;DHT22;13951;49.516;6.094;2023-05-07T12:03:27;20.70;99.90
26212;DHT22;13951;49.516;6.094;2023-05-07T12:06:06;20.70;99.90
26212;DHT22;13951;49.516;6.094;2023-05-07T12:08:41;20.70;99.90
26212;DHT22;13951;49.516;6.094;2023-05-07T12:11:23;20.70;99.90
26212;DHT22;13951;49.516;6.094;2023-05-07T12:13:56;20.70;99.90
26212;DHT22;13951;49.516;6.094;2023-05-07T12:16:31;20.70;99.90
26212;DHT22;13951;49.516;6.094;2023-05-07T12:19:04;20.70;99.90
26212;DHT22;13951;49.516;6.094;2023-05-07T12:21:39;20.70;99.90
26212;DHT22;13951;49.516;6.094;2023-05-07T12:24:14;20.60;99.90
26212;DHT22;13951;49.516;6.094;2023-05-07T12:26:48;20.50;99.90
26212;DHT22;13951;49.516;6.094;2023-05-07T12:29:22;20.50;99.90
26212;DHT22;13951;49.516;6.094;2023-05-07T12:31:55;20.30;99.90
26212;DHT22;13951;49.516;6.094;2023-05-07T12:34:28;20.30;99.90
26212;DHT22;13951;49.516;6.094;2023-05-07T12:37:02;20.30;99.90
26212;DHT22;13951;49.516;6.094;2023-05-07T12:39:36;20.30;99.90
26212;DHT22;13951;49.516;6.094;2023-05-07T12:42:15;20.20;99.90
26212;DHT22;13951;49.516;6.094;2023-05-07T12:44:48;20.20;99.90
26212;DHT22;13951;49.516;6.094;2023-05-07T12:47:22;20.20;99.90
26212;DHT22;13951;49.516;6.094;2023-05-07T12:49:55;20.20;99.90
26212;DHT22;13951;49.516;6.094;2023-05-07T12:52:28;20.10;99.90
26212;DHT22;13951;49.516;6.094;2023-05-07T12:55:06;20.10;99.90
26212;DHT22;13951;49.516;6.094;2023-05-07T12:57:40;20.20;99.90
26212;DHT22;13951;49.516;6.094;2023-05-07T13:00:14;20.20;99.90
26212;DHT22;13951;49.516;6.094;2023-05-07T13:02:47;20.20;99.90
26212;DHT22;13951;49.516;6.094;2023-05-07T13:05:20;20.10;99.90
26212;DHT22;13951;49.516;6.094;2023-05-07T13:07:54;20.20;99.90
26212;DHT22;13951;49.516;6.094;2023-05-07T13:10:27;20.10;99.90
26212;DHT22;13951;49.516;6.094;2023-05-07T13:13:01;20.10;99.90
26212;DHT22;13951;49.516;6.094;2023-05-07T13:15:34;20.10;99.90
26212;DHT22;13951;49.516;6.094;2023-05-07T13:18:08;20.00;99.90
26212;DHT22;13951;49.516;6.094;2023-05-07T13:20:43;20.00;99.90
26212;DHT22;13951;49.516;6.094;2023-05-07T13:23:16;19.90;99.90
26212;DHT22;13951;49.516;6.094;2023-05-07T13:25:49;19.80;99.90
26212;DHT22;13951;49.516;6.094;2023-05-07T13:28:23;19.70;99.90
26212;DHT22;13951;49.516;6.094;2023-05-07T13:30:57;19.70;99.90
26212;DHT22;13951;49.516;6.094;2023-05-07T13:33:30;19.60;99.90
26212;DHT22;13951;49.516;6.094;2023-05-07T13:36:03;19.60;99.90
26212;DHT22;13951;49.516;6.094;2023-05-07T13:38:39;19.70;99.90
26212;DHT22;13951;49.516;6.094;2023-05-07T13:41:12;19.70;99.90
26212;DHT22;13951;49.516;6.094;2023-05-07T13:43:46;19.70;99.90
26212;DHT22;13951;49.516;6.094;2023-05-07T13:46:18;19.70;99.90
26212;DHT22;13951;49.516;6.094;2023-05-07T13:48:51;19.70;99.90
26212;DHT22;13951;49.516;6.094;2023-05-07T13:51:26;19.80;99.90
26212;DHT22;13951;49.516;6.094;2023-05-07T13:53:59;19.80;99.90
26212;DHT22;13951;49.516;6.094;2023-05-07T13:56:32;19.80;99.90
26212;DHT22;13951;49.516;6.094;2023-05-07T13:59:05;19.80;99.90
26212;DHT22;13951;49.516;6.094;2023-05-07T14:01:37;19.80;99.90
26212;DHT22;13951;49.516;6.094;2023-05-07T14:04:11;19.70;99.90
26212;DHT22;13951;49.516;6.094;2023-05-07T14:06:43;19.80;99.90
26212;DHT22;13951;49.516;6.094;2023-05-07T14:09:16;19.80;99.90
26212;DHT22;13951;49.516;6.094;2023-05-07T14:11:49;19.90;99.90
26212;DHT22;13951;49.516;6.094;2023-05-07T14:14:24;19.90;99.90
26212;DHT22;13951;49.516;6.094;2023-05-07T14:16:57;20.00;99.90
26212;DHT22;13951;49.516;6.094;2023-05-07T14:19:31;20.00;99.90
26212;DHT22;13951;49.516;6.094;2023-05-07T14:22:04;20.10;99.90
26212;DHT22;13951;49.516;6.094;2023-05-07T14:24:37;20.20;99.90
26212;DHT22;13951;49.516;6.094;2023-05-07T14:27:11;20.30;99.90
26212;DHT22;13951;49.516;6.094;2023-05-07T14:29:44;20.30;99.90
26212;DHT22;13951;49.516;6.094;2023-05-07T14:32:18;20.40;99.90
26212;DHT22;13951;49.516;6.094;2023-05-07T14:34:51;20.50;99.90
26212;DHT22;13951;49.516;6.094;2023-05-07T14:37:24;20.50;99.90
26212;DHT22;13951;49.516;6.094;2023-05-07T14:39:57;20.50;99.90
26212;DHT22;13951;49.516;6.094;2023-05-07T14:42:29;20.50;99.90
26212;DHT22;13951;49.516;6.094;2023-05-07T14:45:03;20.50;99.90
26212;DHT22;13951;49.516;6.094;2023-05-07T14:47:36;20.50;99.90
26212;DHT22;13951;49.516;6.094;2023-05-07T14:50:11;20.60;99.90
26212;DHT22;13951;49.516;6.094;2023-05-07T14:52:44;20.60;99.90
26212;DHT22;13951;49.516;6.094;2023-05-07T14:55:17;20.70;99.90
26212;DHT22;13951;49.516;6.094;2023-05-07T14:57:50;20.70;99.90
26212;DHT22;13951;49.516;6.094;2023-05-07T15:00:23;20.70;99.90
26212;DHT22;13951;49.516;6.094;2023-05-07T15:03:06;20.60;99.90
26212;DHT22;13951;49.516;6.094;2023-05-07T15:05:40;20.60;99.90
26212;DHT22;13951;49.516;6.094;2023-05-07T15:08:14;20.60;99.90
26212;DHT22;13951;49.516;6.094;2023-05-07T15:10:47;20.60;99.90
26212;DHT22;13951;49.516;6.094;2023-05-07T15:13:20;20.60;99.90
26212;DHT22;13951;49.516;6.094;2023-05-07T15:15:53;20.60;99.90
26212;DHT22;13951;49.516;6.094;2023-05-07T15:18:26;20.70;99.90
26212;DHT22;13951;49.516;6.094;2023-05-07T15:20:59;20.70;99.90
26212;DHT22;13951;49.516;6.094;2023-05-07T15:23:32;20.60;99.90
26212;DHT22;13951;49.516;6.094;2023-05-07T15:26:05;20.70;99.90
26212;DHT22;13951;49.516;6.094;2023-05-07T15:28:40;20.70;99.90
26212;DHT22;13951;49.516;6.094;2023-05-07T15:31:15;20.70;99.90
26212;DHT22;13951;49.516;6.094;2023-05-07T15:33:49;20.70;99.90
26212;DHT22;13951;49.516;6.094;2023-05-07T15:36:24;20.70;99.90
26212;DHT22;13951;49.516;6.094;2023-05-07T15:38:58;20.80;99.90
26212;DHT22;13951;49.516;6.094;2023-05-07T15:41:31;20.80;99.90
26212;DHT22;13951;49.516;6.094;2023-05-07T15:44:04;20.80;99.90
26212;DHT22;13951;49.516;6.094;2023-05-07T15:46:37;20.80;99.90
26212;DHT22;13951;49.516;6.094;2023-05-07T15:49:10;20.90;99.90
26212;DHT22;13951;49.516;6.094;2023-05-07T15:51:43;20.80;99.90
26212;DHT22;13951;49.516;6.094;2023-05-07T15:54:16;20.80;99.90
26212;DHT22;13951;49.516;6.094;2023-05-07T15:56:52;20.80;99.90
26212;DHT22;13951;49.516;6.094;2023-05-07T15:59:25;20.80;99.90
26212;DHT22;13951;49.516;6.094;2023-05-07T16:01:58;20.80;99.90
26212;DHT22;13951;49.516;6.094;2023-05-07T16:04:30;20.70;99.90
26212;DHT22;13951;49.516;6.094;2023-05-07T16:07:03;20.70;99.90
26212;DHT22;13951;49.516;6.094;2023-05-07T16:09:36;20.50;99.90
26212;DHT22;13951;49.516;6.094;2023-05-07T16:12:09;20.30;99.90
26212;DHT22;13951;49.516;6.094;2023-05-07T16:14:43;20.20;99.90
26212;DHT22;13951;49.516;6.094;2023-05-07T16:17:16;19.90;99.90
26212;DHT22;13951;49.516;6.094;2023-05-07T16:19:50;19.70;99.90
26212;DHT22;13951;49.516;6.094;2023-05-07T16:22:24;19.40;99.90
26212;DHT22;13951;49.516;6.094;2023-05-07T16:24:57;19.00;99.90
26212;DHT22;13951;49.516;6.094;2023-05-07T16:27:30;18.50;99.90
26212;DHT22;13951;49.516;6.094;2023-05-07T16:30:03;18.10;99.90
26212;DHT22;13951;49.516;6.094;2023-05-07T16:32:36;17.90;99.90